Wednesday, August 27, 2014, 3:12 PM EDT

KSHD, Staunton / Shenandoah

Location: Weyers Cave, VA, United States Lat: 38.267
Local Time: 3:12 PM EDT (19:12 GMT) Lon: -78.9
Time Zone: US/Eastern Elev: 1200 ft

Show me the last for .
Show Decoded

2014-08-27 14:55 METAR KSHD 271855Z AUTO 00000KT 10SM CLR 29/17 A3007 RMK AO2 T02880166 =
2014-08-27 14:35 METAR KSHD 271835Z AUTO 01004KT 10SM CLR 29/17 A3008 RMK AO2 T02870170 =
2014-08-27 14:15 METAR KSHD 271815Z AUTO 00000KT 10SM CLR 29/17 A3009 RMK AO2 T02860166 =
2014-08-27 13:55 METAR KSHD 271755Z AUTO 31003KT 10SM CLR 28/16 A3009 RMK AO2 T02800161 10281
                 20125 =
2014-08-27 13:35 METAR KSHD 271735Z AUTO 00000KT 10SM CLR 28/16 A3010 RMK AO2 T02760164 =
2014-08-27 13:15 METAR KSHD 271715Z AUTO 10003KT 10SM CLR 27/16 A3011 RMK AO2 T02700160 =
2014-08-27 12:55 METAR KSHD 271655Z AUTO 34003KT 10SM CLR 27/16 A3011 RMK AO2 T02720163 =
2014-08-27 12:35 METAR KSHD 271635Z AUTO 00000KT 10SM CLR 27/15 A3012 RMK AO2 T02680153 =
2014-08-27 12:15 METAR KSHD 271615Z AUTO 01003KT 10SM CLR 27/16 A3013 RMK AO2 T02650156 =
2014-08-27 11:55 METAR KSHD 271555Z AUTO 01003KT 10SM CLR 26/15 A3014 RMK AO2 T02610151 =
2014-08-27 11:35 METAR KSHD 271535Z AUTO 00000KT 10SM CLR 25/15 A3014 RMK AO2 T02480154 =
2014-08-27 11:15 METAR KSHD 271515Z AUTO 00000KT 10SM CLR 24/16 A3015 RMK AO2 T02420155 =
2014-08-27 10:55 METAR KSHD 271455Z AUTO 00000KT 10SM CLR 23/16 A3016 RMK AO2 T02330156 =
2014-08-27 10:35 METAR KSHD 271435Z AUTO 00000KT 10SM CLR 22/16 A3016 RMK AO2 T02240156 =
2014-08-27 10:15 METAR KSHD 271415Z AUTO 00000KT 10SM CLR 21/16 A3016 RMK AO2 T02080155 =
2014-08-27 09:35 METAR KSHD 271335Z AUTO 00000KT 10SM CLR 18/15 A3016 RMK AO2 T01840146 =
2014-08-27 09:15 METAR KSHD 271315Z AUTO 00000KT 10SM CLR 17/15 A3016 RMK AO2 T01730145 =
2014-08-27 08:35 METAR KSHD 271235Z AUTO 00000KT 10SM CLR 15/14 A3017 RMK AO2 T01450137 =
2014-08-27 08:15 METAR KSHD 271215Z AUTO 00000KT 7SM SCT002 13/13 A3016 RMK AO2 T01340126 =
2014-08-27 07:55 METAR KSHD 271155Z AUTO 00000KT 1/4SM FG OVC002 12/12 A3016 RMK AO2 T01240116
                 10139 20105 =
2014-08-27 07:35 METAR KSHD 271135Z AUTO 00000KT M1/4SM FG OVC002 12/11 A3016 RMK AO2 T01150107 =
2014-08-27 07:15 METAR KSHD 271115Z AUTO 00000KT 1/2SM FG OVC002 11/10 A3015 RMK AO2 T01080099 =
2014-08-27 06:55 METAR KSHD 271055Z AUTO 00000KT 2SM BR BKN002 11/10 A3015 RMK AO2 T01070099 =
2014-08-27 06:35 METAR KSHD 271035Z AUTO 00000KT 1SM BR OVC002 11/10 A3014 RMK AO2 T01050095 =
2014-08-27 06:15 METAR KSHD 271015Z AUTO 00000KT 1/2SM FG OVC002 11/10 A3014 RMK AO2 T01120103 =
2014-08-27 05:55 METAR KSHD 270955Z AUTO 00000KT 10SM SCT002 11/10 A3013 RMK AO2 T01120101 =
2014-08-27 05:35 METAR KSHD 270935Z AUTO 00000KT 1/2SM FG OVC002 11/10 A3013 RMK AO2 T01110099 =
2014-08-27 05:15 METAR KSHD 270915Z AUTO 00000KT 7SM CLR 12/11 A3013 RMK AO2 T01200110 =
2014-08-27 04:55 METAR KSHD 270855Z AUTO 00000KT 7SM CLR 12/11 A3013 RMK AO2 T01210111 =
2014-08-27 04:35 METAR KSHD 270835Z AUTO 00000KT 7SM CLR 12/11 A3013 RMK AO2 T01210111 =
2014-08-27 04:15 METAR KSHD 270815Z AUTO 00000KT 2 1/2SM BR SCT002 12/11 A3013 RMK AO2 VIS 1/2V5
                 T01170106 =
2014-08-27 03:55 METAR KSHD 270755Z AUTO 00000KT 10SM SCT002 12/11 A3013 RMK AO2 T01180107 =
2014-08-27 03:35 METAR KSHD 270735Z AUTO 00000KT 1SM BR OVC002 12/11 A3013 RMK AO2 T01230113 =
2014-08-27 03:15 METAR KSHD 270715Z AUTO 00000KT 1SM BR BKN002 12/11 A3013 RMK AO2 VIS 1/4V5
                 T01230111 =
2014-08-27 02:55 METAR KSHD 270655Z AUTO 00000KT 3SM BR SCT002 13/12 A3013 RMK AO2 T01290115 =
2014-08-27 02:35 METAR KSHD 270635Z AUTO 00000KT 10SM CLR 14/12 A3013 RMK AO2 T01360122 =
2014-08-27 02:15 METAR KSHD 270615Z AUTO 00000KT 10SM CLR 14/12 A3014 RMK AO2 T01370123 =
2014-08-27 01:55 METAR KSHD 270555Z AUTO 00000KT 7SM CLR 13/12 A3014 RMK AO2 T01330118 10232
                 20133 402750102 =
2014-08-27 01:35 METAR KSHD 270535Z AUTO 00000KT 7SM CLR 15/13 A3015 RMK AO2 T01450133 =
2014-08-27 01:15 METAR KSHD 270515Z AUTO 00000KT 10SM CLR 15/13 A3015 RMK AO2 T01450132 =
2014-08-27 00:55 METAR KSHD 270455Z AUTO 00000KT 7SM CLR 14/13 A3016 RMK AO2 T01440130 =
2014-08-27 00:15 METAR KSHD 270415Z AUTO 00000KT 10SM CLR 15/14 A3017 RMK AO2 T01510136 =
2014-08-26 23:55 METAR KSHD 270355Z AUTO 00000KT 10SM CLR 15/14 A3017 RMK AO2 T01530137 =
2014-08-26 23:35 METAR KSHD 270335Z AUTO 00000KT 10SM CLR 15/13 A3018 RMK AO2 T01540133 =
2014-08-26 23:15 METAR KSHD 270315Z AUTO 00000KT 10SM CLR 16/14 A3019 RMK AO2 T01580140 =
2014-08-26 22:55 METAR KSHD 270255Z AUTO 00000KT 10SM CLR 16/14 A3019 RMK AO2 T01600138 =
2014-08-26 22:35 METAR KSHD 270235Z AUTO 00000KT 10SM CLR 17/14 A3020 RMK AO2 T01670143 =
2014-08-26 22:15 METAR KSHD 270215Z AUTO 00000KT 10SM CLR 16/14 A3020 RMK AO2 T01610140 =
2014-08-26 21:55 METAR KSHD 270155Z AUTO 00000KT 10SM CLR 18/15 A3019 RMK AO2 T01770147 =
2014-08-26 21:35 METAR KSHD 270135Z AUTO 00000KT 10SM CLR 19/15 A3019 RMK AO2 T01860149 =
2014-08-26 21:15 METAR KSHD 270115Z AUTO 00000KT 10SM CLR 18/15 A3019 RMK AO2 T01840151 =
2014-08-26 20:55 METAR KSHD 270055Z AUTO 00000KT 10SM CLR 19/15 A3018 RMK AO2 T01860150 =
2014-08-26 20:35 METAR KSHD 270035Z AUTO 00000KT 10SM CLR 21/15 A3017 RMK AO2 T02070146 =
2014-08-26 20:15 METAR KSHD 270015Z AUTO 00000KT 10SM CLR 21/15 A3017 RMK AO2 T02110150 =
2014-08-26 19:55 METAR KSHD 262355Z AUTO 00000KT 10SM CLR 23/14 A3017 RMK AO2 T02340143 10275
                 20234 =
2014-08-26 19:35 METAR KSHD 262335Z AUTO 13004KT 10SM CLR 24/14 A3016 RMK AO2 T02420137 =
2014-08-26 19:15 METAR KSHD 262315Z AUTO 13003KT 10SM CLR 25/14 A3016 RMK AO2 T02500140 =
2014-08-26 18:55 METAR KSHD 262255Z AUTO 13005KT 10SM CLR 26/14 A3017 RMK AO2 T02550136 =
2014-08-26 18:35 METAR KSHD 262235Z AUTO 11004KT 10SM CLR 26/13 A3016 RMK AO2 T02600132 =
2014-08-26 18:15 METAR KSHD 262215Z AUTO 11004KT 10SM CLR 27/13 A3016 RMK AO2 T02650132 =
2014-08-26 17:55 METAR KSHD 262155Z AUTO 11004KT 10SM CLR 27/13 A3016 RMK AO2 T02680133 =
2014-08-26 17:15 METAR KSHD 262115Z AUTO 13003KT 10SM CLR 27/14 A3016 RMK AO2 T02700137 =
2014-08-26 16:55 METAR KSHD 262055Z AUTO 00000KT 10SM CLR 27/15 A3016 RMK AO2 T02710146 =
2014-08-26 16:35 METAR KSHD 262035Z AUTO 00000KT 10SM CLR 27/14 A3016 RMK AO2 T02710142 =
2014-08-26 16:15 METAR KSHD 262015Z AUTO 31003KT 10SM CLR 28/13 A3017 RMK AO2 T02750133 =
2014-08-26 15:55 METAR KSHD 261955Z AUTO 12003KT 10SM CLR 27/14 A3018 RMK AO2 T02700138 =
2014-08-26 15:35 METAR KSHD 261935Z AUTO 11004KT 10SM CLR 27/14 A3018 RMK AO2 T02680135 =
2014-08-26 15:15 METAR KSHD 261915Z AUTO 05004KT 10SM CLR 27/14 A3018 RMK AO2 T02730139 =

Support USWX by starting your Amazon purchase here.